createdAt,value
2023-02-05T10:44:07.153Z,978.91
2023-02-05T10:45:12.701Z,978.90
2023-02-05T10:46:18.204Z,978.85
2023-02-05T10:47:23.577Z,978.81
2023-02-05T10:48:28.969Z,978.76
2023-02-05T10:49:34.475Z,978.82
2023-02-05T10:50:40.016Z,978.75
2023-02-05T10:51:45.512Z,978.70
2023-02-05T10:52:51.053Z,978.70
2023-02-05T10:53:56.764Z,978.71
2023-02-05T10:55:02.222Z,978.69
2023-02-05T10:56:07.691Z,978.62
2023-02-05T10:57:13.106Z,978.66
2023-02-05T10:58:18.506Z,978.64
2023-02-05T10:59:23.898Z,978.63
2023-02-05T11:00:29.377Z,978.55
2023-02-05T11:01:34.778Z,978.57
2023-02-05T11:02:40.096Z,978.60
2023-02-05T11:03:45.418Z,978.55
2023-02-05T11:04:50.731Z,978.55
2023-02-05T11:05:56.060Z,978.46
2023-02-05T11:07:01.504Z,978.47
2023-02-05T11:08:06.898Z,978.48
2023-02-05T11:09:12.258Z,978.46
2023-02-05T11:10:17.613Z,978.46
2023-02-05T11:11:23.038Z,978.47
2023-02-05T11:12:28.346Z,978.45
2023-02-05T11:13:33.664Z,978.44
2023-02-05T11:14:38.969Z,978.40
2023-02-05T11:15:44.381Z,978.47
2023-02-05T11:16:49.690Z,978.48
2023-02-05T11:17:55.064Z,978.48
2023-02-05T11:19:00.399Z,978.39
2023-02-05T11:20:05.746Z,978.40
2023-02-05T11:21:11.091Z,978.33
2023-02-05T11:22:16.427Z,978.39
2023-02-05T11:23:21.755Z,978.41
2023-02-05T15:52:12.931Z,977.65
2023-02-05T15:53:18.361Z,977.70
2023-02-05T15:54:23.901Z,977.69
2023-02-05T15:55:29.417Z,977.70
2023-02-05T15:56:35.218Z,977.70
2023-02-05T15:57:40.641Z,977.77
2023-02-05T15:58:46.052Z,977.74
2023-02-05T15:59:51.424Z,977.74
2023-02-05T16:00:56.786Z,977.79
2023-02-05T16:02:02.130Z,977.76
2023-02-05T16:03:08.265Z,977.77
2023-02-05T16:04:13.732Z,977.74
2023-02-05T16:05:19.067Z,977.77
2023-02-05T16:06:24.341Z,977.78
2023-02-05T16:07:29.631Z,977.83
2023-02-05T16:08:34.920Z,977.82
2023-02-05T16:09:40.242Z,977.83
2023-02-05T16:10:45.578Z,977.82
2023-02-05T16:11:50.821Z,977.81
2023-02-05T16:12:56.089Z,977.87
2023-02-05T16:14:01.386Z,977.86
2023-02-05T16:15:06.588Z,977.78
2023-02-05T16:16:11.899Z,977.83
2023-02-05T16:17:17.132Z,977.88
2023-02-05T16:18:22.395Z,977.90
2023-02-05T16:19:27.676Z,977.91
2023-02-05T16:20:33.320Z,977.96
2023-02-05T16:21:38.737Z,977.91
2023-02-05T16:22:44.020Z,977.92
2023-02-05T16:23:49.287Z,977.98
2023-02-05T16:24:54.580Z,978.00
2023-02-05T16:25:59.893Z,977.97
2023-02-05T16:27:05.158Z,977.96
2023-02-05T16:28:10.411Z,977.98
2023-02-05T16:29:24.855Z,977.98
2023-02-05T16:30:26.842Z,977.98
2023-02-05T16:31:32.232Z,977.93
2023-02-05T16:32:37.500Z,978.00
2023-02-05T16:33:42.832Z,978.05
2023-02-05T16:34:48.184Z,978.02
2023-02-05T16:35:53.507Z,978.02
2023-02-05T16:36:58.849Z,978.07
2023-02-05T16:38:04.156Z,978.03
2023-02-05T16:39:09.473Z,978.06
2023-02-05T16:40:14.804Z,978.07
2023-02-05T16:41:20.104Z,978.04
2023-02-05T16:42:25.461Z,978.10
2023-02-05T16:43:30.760Z,978.15
2023-02-05T16:44:36.096Z,978.07
2023-02-05T16:45:41.428Z,978.11
2023-02-05T16:46:46.726Z,978.14
2023-02-05T16:47:52.052Z,978.18
2023-02-05T16:48:57.369Z,978.22
2023-02-05T16:50:02.708Z,978.23
2023-02-05T16:51:08.039Z,978.29
2023-02-05T16:52:13.788Z,978.27
2023-02-05T16:53:19.123Z,978.34
2023-02-05T16:54:24.450Z,978.25
2023-02-05T16:55:29.771Z,978.25
2023-02-05T16:56:35.075Z,978.26
2023-02-05T16:57:40.406Z,978.37
2023-02-05T16:58:45.859Z,978.33
2023-02-05T16:59:51.177Z,978.38
2023-02-05T17:00:56.556Z,978.35
2023-02-05T17:02:01.929Z,978.36
2023-02-05T17:03:07.195Z,978.40
2023-02-05T17:04:12.528Z,978.41
2023-02-05T17:05:17.841Z,978.37
2023-02-05T17:06:23.163Z,978.45
2023-02-05T17:07:28.458Z,978.41
2023-02-05T17:08:33.781Z,978.49
2023-02-05T17:09:39.084Z,978.53
2023-02-05T17:10:44.437Z,978.50
2023-02-05T17:11:49.737Z,978.53
2023-02-05T17:12:55.002Z,978.47
2023-02-05T17:14:00.295Z,978.47
2023-02-05T17:15:05.741Z,978.51
2023-02-05T17:16:11.000Z,978.52
2023-02-05T17:17:16.266Z,978.53
2023-02-05T17:18:21.544Z,978.55
2023-02-05T17:19:26.840Z,978.49
2023-02-05T17:20:32.234Z,978.60
2023-02-05T17:21:37.530Z,978.58
2023-02-05T17:22:42.797Z,978.61
2023-02-05T17:23:48.076Z,978.53
2023-02-05T17:24:53.326Z,978.49
2023-02-05T17:25:58.593Z,978.48
2023-02-05T17:27:03.854Z,978.48
2023-02-05T17:28:09.159Z,978.46
2023-02-05T17:29:14.396Z,978.44
2023-02-05T17:30:19.696Z,978.46
2023-02-05T17:31:25.070Z,978.42
2023-02-05T17:32:30.303Z,978.40
2023-02-05T17:33:35.598Z,978.38
2023-02-05T17:34:40.852Z,978.44
2023-02-05T17:35:46.104Z,978.46
2023-02-05T17:36:51.341Z,978.38
2023-02-05T17:37:56.589Z,978.35
2023-02-05T17:39:01.861Z,978.45
2023-02-05T17:40:07.113Z,978.40
2023-02-05T17:41:12.389Z,978.43
2023-02-05T17:42:17.664Z,978.49
2023-02-05T17:43:22.976Z,978.51
2023-02-05T17:44:28.232Z,978.51
2023-02-05T17:45:33.533Z,978.55
2023-02-05T17:46:38.775Z,978.55
2023-02-05T17:47:44.067Z,978.56
2023-02-05T17:48:49.288Z,978.60
2023-02-05T17:49:54.550Z,978.58
2023-02-05T17:50:59.784Z,978.57
2023-02-05T17:52:05.028Z,978.56
2023-02-05T17:53:10.438Z,978.60
2023-02-05T17:54:15.814Z,978.60
2023-02-05T17:55:21.242Z,978.64
2023-02-05T17:56:26.702Z,978.63
2023-02-05T17:57:32.106Z,978.65
2023-02-05T17:58:37.550Z,978.60
2023-02-05T17:59:42.907Z,978.69
2023-02-05T18:00:48.378Z,978.66
2023-02-05T18:01:53.783Z,978.68
2023-02-05T18:02:59.150Z,978.65
2023-02-05T18:04:04.607Z,978.69
2023-02-05T18:05:10.027Z,978.64
2023-02-05T18:06:15.418Z,978.55
2023-02-05T18:07:20.820Z,978.55
2023-02-05T18:08:26.273Z,978.61
2023-02-05T18:09:31.639Z,978.55
2023-02-05T18:10:37.336Z,978.62
2023-02-05T18:11:42.982Z,978.54
2023-02-05T18:12:48.417Z,978.53
2023-02-05T18:13:53.849Z,978.54
2023-02-05T18:14:59.265Z,978.56
2023-02-05T18:16:04.732Z,978.60
2023-02-05T18:17:10.187Z,978.61
2023-02-05T18:18:15.660Z,978.64
2023-02-05T18:19:21.381Z,978.64
2023-02-05T18:20:26.895Z,978.63
2023-02-05T18:21:32.368Z,978.65
2023-02-05T18:22:37.833Z,978.67
2023-02-05T18:23:43.321Z,978.68
2023-02-05T18:24:48.804Z,978.65
2023-02-05T18:25:54.248Z,978.70
2023-02-05T18:26:59.731Z,978.73
2023-02-05T18:28:05.192Z,978.70
2023-02-05T18:29:10.656Z,978.71
2023-02-05T18:30:16.109Z,978.78
2023-02-05T18:31:21.584Z,978.78
2023-02-05T18:32:27.082Z,978.78
2023-02-05T18:33:32.537Z,978.84
2023-02-05T18:34:38.000Z,978.79
2023-02-05T18:35:43.509Z,978.84
2023-02-05T18:36:48.991Z,978.85
2023-02-05T18:37:54.414Z,978.85
2023-02-05T18:38:59.880Z,978.79
2023-02-05T18:40:05.278Z,978.84
2023-02-05T18:41:10.699Z,978.96
2023-02-05T18:42:16.129Z,978.91
2023-02-05T18:43:21.539Z,978.92
2023-02-05T18:44:27.539Z,978.99
2023-02-05T18:45:32.941Z,978.94
2023-02-05T18:46:38.386Z,979.00
2023-02-05T18:47:43.827Z,978.97
2023-02-05T18:48:49.270Z,979.03
2023-02-05T18:49:54.678Z,978.96
2023-02-05T18:51:00.137Z,979.01
2023-02-05T18:52:05.549Z,979.04
2023-02-05T18:53:11.029Z,979.04
2023-02-05T18:54:16.466Z,979.04
2023-02-05T18:55:21.897Z,979.02
2023-02-05T18:56:27.324Z,979.00
2023-02-05T18:57:32.760Z,979.06
2023-02-05T18:58:38.221Z,979.12
2023-02-05T18:59:43.666Z,979.09
2023-02-05T19:00:49.110Z,979.11
2023-02-05T19:01:54.547Z,979.13
2023-02-05T19:03:00.028Z,979.11
2023-02-05T19:04:05.435Z,979.17
2023-02-05T19:05:10.872Z,979.13
2023-02-05T19:06:16.424Z,979.17
2023-02-05T19:07:21.858Z,979.18
2023-02-05T19:08:27.271Z,979.22
2023-02-05T19:09:32.805Z,979.16
2023-02-05T19:10:38.245Z,979.12
2023-02-05T19:11:43.711Z,979.14
2023-02-05T19:12:49.151Z,979.18
2023-02-05T19:13:54.615Z,979.25
2023-02-05T19:15:00.059Z,979.32
2023-02-05T19:16:05.545Z,979.32
2023-02-05T19:17:10.989Z,979.30
2023-02-05T19:18:16.415Z,979.29
2023-02-05T19:19:22.514Z,979.25
2023-02-05T19:20:27.962Z,979.22
2023-02-05T19:21:33.413Z,979.30
2023-02-05T19:22:38.876Z,979.29
2023-02-05T19:23:44.358Z,979.30
2023-02-05T19:24:49.792Z,979.33
2023-02-05T19:25:55.300Z,979.28
2023-02-05T19:27:00.734Z,979.21
2023-02-05T19:28:06.211Z,979.20
2023-02-05T19:29:11.853Z,979.23
2023-02-05T19:30:17.297Z,979.24
2023-02-05T19:31:22.825Z,979.18
2023-02-05T19:32:28.234Z,979.28
2023-02-05T19:33:33.705Z,979.26
2023-02-05T19:34:39.182Z,979.30
2023-02-05T19:35:44.628Z,979.35
2023-02-05T19:36:50.059Z,979.27
2023-02-05T19:37:55.535Z,979.30
2023-02-05T19:39:01.019Z,979.34
2023-02-05T19:40:06.488Z,979.38
2023-02-05T19:41:11.945Z,979.37
2023-02-05T19:42:17.491Z,979.35
2023-02-05T19:43:22.954Z,979.38
2023-02-05T19:44:28.462Z,979.32
2023-02-05T19:45:33.932Z,979.26
2023-02-05T19:46:39.477Z,979.26
2023-02-05T19:47:44.942Z,979.22
2023-02-05T19:48:50.428Z,979.26
2023-02-05T19:49:55.900Z,979.28
2023-02-05T19:51:01.354Z,979.30
2023-02-05T19:52:07.034Z,979.35
2023-02-05T19:53:12.517Z,979.34
2023-02-05T19:54:20.550Z,979.35
2023-02-05T19:55:26.861Z,979.38
2023-02-05T19:56:32.340Z,979.31
2023-02-05T19:57:37.800Z,979.33
2023-02-05T19:58:43.337Z,979.38
2023-02-05T19:59:48.780Z,979.39
2023-02-05T20:00:54.251Z,979.41
2023-02-05T20:01:59.677Z,979.41
2023-02-05T20:03:05.103Z,979.45
2023-02-05T20:04:10.592Z,979.49
2023-02-05T20:05:16.074Z,979.56
2023-02-05T20:06:21.483Z,979.53
2023-02-05T20:07:26.939Z,979.53
2023-02-05T20:08:32.429Z,979.45
2023-02-05T20:09:37.902Z,979.54
2023-02-05T20:10:43.367Z,979.55
2023-02-05T20:11:48.833Z,979.64
2023-02-05T20:12:54.323Z,979.61
2023-02-05T20:13:59.783Z,979.62
2023-02-05T20:15:05.302Z,979.66
2023-02-05T20:16:10.826Z,979.66
2023-02-05T20:17:16.342Z,979.70
2023-02-05T20:18:21.807Z,979.62
2023-02-05T20:19:27.266Z,979.77
2023-02-05T20:20:33.952Z,979.82
2023-02-05T20:21:39.536Z,979.90
2023-02-05T20:22:44.963Z,979.86
2023-02-05T20:23:50.404Z,979.91
2023-02-05T20:24:55.795Z,979.88
2023-02-05T20:26:01.169Z,979.94
2023-02-05T20:27:06.570Z,979.85
2023-02-05T20:28:11.992Z,979.93
2023-02-05T20:29:17.356Z,979.97
2023-02-05T20:30:22.853Z,980.04
2023-02-05T20:31:28.337Z,980.07
2023-02-05T20:32:33.746Z,980.07
2023-02-05T20:33:39.157Z,980.08
2023-02-05T20:34:44.571Z,980.02
2023-02-05T20:35:49.959Z,980.04
2023-02-05T20:36:55.374Z,980.03
2023-02-05T20:38:00.731Z,980.04
2023-02-05T20:39:06.152Z,980.02
2023-02-05T20:40:11.578Z,980.09
2023-02-05T20:41:17.221Z,980.00
2023-02-05T20:42:22.583Z,980.09
2023-02-05T20:43:28.004Z,980.12
2023-02-05T20:44:33.425Z,980.14
2023-02-05T20:45:38.850Z,980.20
2023-02-05T20:46:44.338Z,980.17
2023-02-05T20:47:49.743Z,980.13
2023-02-05T20:48:55.130Z,980.20
2023-02-05T20:50:00.542Z,980.17
2023-02-05T20:51:05.944Z,980.09
2023-02-05T20:52:11.376Z,980.17
2023-02-05T20:53:16.806Z,980.16
2023-02-05T20:54:22.258Z,980.17
2023-02-05T20:55:27.661Z,980.17
2023-02-05T20:56:33.024Z,980.17
2023-02-05T20:57:38.423Z,980.19
2023-02-05T20:58:44.245Z,980.20
2023-02-05T20:59:49.654Z,980.16
2023-02-05T21:00:55.166Z,980.19
2023-02-05T21:02:00.680Z,980.16
2023-02-05T21:03:06.058Z,980.12
2023-02-05T21:04:11.440Z,980.14
2023-02-05T21:05:16.711Z,980.12
2023-02-05T21:06:22.028Z,980.13
2023-02-05T21:07:27.368Z,980.16
2023-02-05T21:08:32.761Z,980.19
2023-02-05T21:09:38.097Z,980.18
2023-02-05T21:10:43.365Z,980.29
2023-02-05T21:11:48.646Z,980.30
2023-02-05T21:12:54.007Z,980.28
2023-02-05T21:13:59.321Z,980.29
2023-02-05T21:15:04.603Z,980.30
2023-02-05T21:16:09.951Z,980.29
2023-02-05T21:17:15.186Z,980.40
2023-02-05T21:18:20.443Z,980.39
2023-02-05T21:19:25.694Z,980.43
2023-02-05T21:20:31.022Z,980.34
2023-02-05T21:21:36.253Z,980.41
2023-02-05T21:22:41.671Z,980.35
2023-02-05T21:23:46.946Z,980.33
2023-02-05T21:24:52.217Z,980.26
2023-02-05T21:25:57.470Z,980.34
2023-02-05T21:27:02.722Z,980.36
2023-02-05T21:28:08.028Z,980.42
2023-02-05T21:29:13.318Z,980.43
2023-02-05T21:30:18.600Z,980.40
2023-02-05T21:31:23.864Z,980.50
2023-02-05T21:32:29.106Z,980.48
2023-02-05T21:33:34.405Z,980.53
2023-02-05T21:34:39.679Z,980.51
2023-02-05T21:35:44.961Z,980.48
2023-02-05T21:36:50.267Z,980.48
2023-02-05T21:37:55.521Z,980.52
2023-02-05T21:39:00.815Z,980.54
2023-02-05T21:40:09.625Z,980.51
2023-02-05T21:41:15.144Z,980.56
2023-02-05T21:42:20.420Z,980.66
2023-02-05T21:43:25.709Z,980.62
2023-02-05T21:44:30.987Z,980.61
2023-02-05T21:45:37.084Z,980.71
2023-02-05T21:46:42.350Z,980.69
2023-02-05T21:47:47.613Z,980.72
2023-02-05T21:48:52.892Z,980.76
2023-02-05T21:49:58.170Z,980.76
2023-02-05T21:51:03.453Z,980.79
2023-02-05T21:52:08.718Z,980.75
2023-02-05T21:53:14.023Z,980.74
2023-02-05T21:54:19.317Z,980.80
2023-02-05T21:55:24.597Z,980.78
2023-02-05T21:56:29.866Z,980.78
2023-02-05T21:57:35.121Z,980.79
2023-02-05T21:58:40.386Z,980.82
2023-02-05T21:59:45.640Z,980.81
2023-02-05T22:00:50.961Z,980.88
2023-02-05T22:01:56.270Z,980.89
2023-02-05T22:03:01.546Z,980.89
2023-02-05T22:04:06.768Z,980.91
2023-02-05T22:05:12.053Z,980.94
2023-02-05T22:06:17.331Z,980.95
2023-02-05T22:07:22.649Z,980.99
2023-02-05T22:08:27.909Z,981.01
2023-02-05T22:09:33.209Z,981.02
2023-02-05T22:10:38.485Z,980.98
2023-02-05T22:11:43.778Z,981.07
2023-02-05T22:12:49.094Z,981.05
2023-02-05T22:13:55.319Z,981.00
2023-02-05T22:15:00.582Z,981.05
2023-02-05T22:16:05.866Z,981.09
2023-02-05T22:17:11.186Z,981.05
2023-02-05T22:18:16.478Z,981.08
2023-02-05T22:19:21.779Z,981.13
2023-02-05T22:20:27.016Z,981.13
2023-02-05T22:21:32.256Z,981.10
2023-02-05T22:22:37.522Z,981.11
2023-02-05T22:23:42.819Z,981.08
2023-02-05T22:24:48.220Z,981.11
2023-02-05T22:25:53.521Z,981.11
2023-02-05T22:26:58.928Z,981.21
2023-02-05T22:28:04.333Z,981.19
2023-02-05T22:29:09.559Z,981.22
2023-02-05T22:30:14.884Z,981.20
2023-02-05T22:31:20.165Z,981.23
2023-02-05T22:32:25.416Z,981.23
2023-02-05T22:33:30.697Z,981.29
2023-02-05T22:34:36.054Z,981.27
2023-02-05T22:35:41.351Z,981.27
2023-02-05T22:36:46.667Z,981.35
2023-02-05T22:37:51.956Z,981.24
2023-02-05T22:38:57.221Z,981.25
2023-02-05T22:40:02.569Z,981.32
2023-02-05T22:41:07.827Z,981.26
2023-02-05T22:42:13.123Z,981.34
2023-02-05T22:43:18.355Z,981.32
2023-02-05T22:44:23.634Z,981.31
2023-02-05T22:45:28.935Z,981.35
2023-02-05T22:46:34.256Z,981.35
2023-02-05T22:47:39.618Z,981.36
2023-02-05T22:48:44.915Z,981.42
2023-02-05T22:49:50.163Z,981.58
2023-02-05T22:50:55.407Z,981.56
2023-02-05T22:52:00.708Z,981.50
2023-02-05T22:53:05.970Z,981.57
2023-02-05T22:54:11.219Z,981.59
2023-02-05T22:55:16.492Z,981.57
2023-02-05T22:56:21.771Z,981.55
2023-02-05T22:57:27.013Z,981.57
2023-02-05T22:58:32.351Z,981.63
2023-02-05T22:59:37.609Z,981.60
2023-02-05T23:00:42.882Z,981.67
2023-02-05T23:01:48.148Z,981.68
2023-02-05T23:02:53.440Z,981.70
2023-02-05T23:03:59.730Z,981.71
